Airport ID:KBCT
Update Time (UTC):21/05/2019 17:15
Wind Speed (Knots):9
Wind Direction (Magnetic):130
Temperature (°C):31
Dew Point (°C):21
Humidity (%):53
Altimeter (inHg):29.98
Density Altitude (Feet):2100
Visibility (Miles):10+
Clouds (Hundreds of feet):CLR
Present Weather:
METAR:METAR KBCT 211715Z AUTO 12010KT 100V160 10SM CLR 31/21 A2998 RMK AO2

The data displayed is for advisory purposes only and is not to be used for flight planning or operations.

This page is not automatically refreshed. Reload the page to see current data.